Time;durP1;ratioP1;P1;durP2;ratioP2;P2;SDS_P1;SDS_P2;PMS_P1;PMS_P2;Temp;Humidity;BMP_temperature;BMP_pressure;BME280_temperature;BME280_humidity;BME280_pressure;Samples;Min_cycle;Max_cycle;Signal;HPM_P1;HPM_P2
2022/05/21 00:03:05;;;;;;;4.32;2.45;;;12.70;99.90;;;;;;20681975;28;20109;-39
2022/05/21 00:13:07;;;;;;;3.47;2.35;;;12.80;99.90;;;;;;20689127;28;20400;-39
2022/05/21 00:23:18;;;;;;;3.55;1.90;;;12.80;99.90;;;;;;20685529;28;20524;-39
2022/05/21 00:33:19;;;;;;;6.75;3.50;;;12.80;99.90;;;;;;20681347;28;20404;-40
2022/05/21 00:43:43;;;;;;;4.47;2.30;;;12.70;99.90;;;;;;20680190;28;20511;-39
2022/05/21 00:53:46;;;;;;;7.28;2.42;;;12.80;99.90;;;;;;20700107;28;20049;-39
2022/05/21 01:03:47;;;;;;;4.63;1.70;;;12.80;99.90;;;;;;20689610;28;20040;-39
2022/05/21 01:13:51;;;;;;;2.72;1.35;;;13.00;99.90;;;;;;20696299;28;20485;-39
2022/05/21 01:23:51;;;;;;;3.33;1.58;;;13.20;99.90;;;;;;20697319;28;20037;-39
2022/05/21 01:33:54;;;;;;;3.03;1.80;;;13.30;99.90;;;;;;20692811;28;20094;-40
2022/05/21 01:54:15;;;;;;;7.65;1.25;;;13.40;99.90;;;;;;20698591;28;21593;-39
2022/05/21 02:04:18;;;;;;;3.72;1.60;;;13.50;99.90;;;;;;20699175;28;20045;-39
2022/05/21 02:14:19;;;;;;;2.97;1.48;;;13.60;99.90;;;;;;20700106;28;20090;-39
2022/05/21 02:24:20;;;;;;;7.72;1.55;;;13.60;99.90;;;;;;20692776;28;20042;-39
2022/05/21 02:34:21;;;;;;;1.85;0.90;;;13.50;99.90;;;;;;20693566;28;20401;-39
2022/05/21 02:44:23;;;;;;;9.48;1.50;;;13.40;99.90;;;;;;20697881;28;20053;-39
2022/05/21 02:54:24;;;;;;;3.92;1.15;;;13.40;99.90;;;;;;20688375;28;20236;-39
2022/05/21 03:04:25;;;;;;;2.67;1.40;;;13.40;99.90;;;;;;20690055;28;20061;-39
2022/05/21 03:14:26;;;;;;;1.75;0.75;;;13.40;99.90;;;;;;20689548;28;20045;-39
2022/05/21 03:24:28;;;;;;;3.25;0.73;;;13.40;99.90;;;;;;20693958;28;20094;-39
2022/05/21 03:34:30;;;;;;;2.15;0.85;;;13.10;99.90;;;;;;20691445;28;20144;-39
2022/05/21 03:44:31;;;;;;;3.63;1.30;;;13.10;99.90;;;;;;20688083;28;20045;-39
2022/05/21 03:54:32;;;;;;;5.55;1.65;;;13.00;99.90;;;;;;20687996;28;20370;-39
2022/05/21 04:04:33;;;;;;;5.05;1.70;;;12.80;99.90;;;;;;20687111;28;20057;-39
2022/05/21 04:14:35;;;;;;;9.52;1.02;;;12.70;99.90;;;;;;20691667;28;20050;-39
2022/05/21 04:24:36;;;;;;;2.47;1.00;;;12.60;99.90;;;;;;20714492;28;20053;-39
2022/05/21 04:34:37;;;;;;;3.53;1.35;;;12.50;99.90;;;;;;20701254;28;20287;-39
2022/05/21 04:44:39;;;;;;;4.18;1.05;;;12.60;99.90;;;;;;20703591;28;20037;-39
2022/05/21 04:54:40;;;;;;;6.47;0.80;;;12.70;99.90;;;;;;20708584;28;20068;-39
2022/05/21 05:04:41;;;;;;;2.95;1.35;;;13.00;99.90;;;;;;20717399;28;20045;-39
2022/05/21 05:14:43;;;;;;;2.35;0.90;;;13.00;99.90;;;;;;20708580;28;20050;-39
2022/05/21 05:24:44;;;;;;;3.17;1.25;;;13.10;99.90;;;;;;20714431;28;20045;-39
2022/05/21 05:34:45;;;;;;;3.72;1.00;;;13.20;99.90;;;;;;20699691;28;20038;-39
2022/05/21 05:44:46;;;;;;;2.40;0.70;;;13.30;99.90;;;;;;20694597;28;20524;-39
2022/05/21 05:54:47;;;;;;;2.08;1.02;;;13.50;99.90;;;;;;20695777;28;20057;-39
2022/05/21 06:04:48;;;;;;;3.15;1.08;;;13.80;99.90;;;;;;20708286;28;21136;-39
2022/05/21 06:14:49;;;;;;;7.55;2.15;;;13.90;99.90;;;;;;20691268;28;20084;-39
2022/05/21 06:24:51;;;;;;;3.53;1.00;;;14.20;99.90;;;;;;21627838;22;20048;-84
2022/05/21 06:34:52;;;;;;;3.03;1.33;;;14.30;99.90;;;;;;20729620;28;20029;-79
2022/05/21 06:44:53;;;;;;;5.75;1.00;;;14.40;99.90;;;;;;20755335;28;20345;-79
2022/05/21 06:54:55;;;;;;;6.88;2.00;;;14.70;99.90;;;;;;20728397;28;20045;-79
2022/05/21 07:15:17;;;;;;;4.57;0.90;;;14.80;99.90;;;;;;20709288;28;20170;-79
2022/05/21 07:25:23;;;;;;;3.58;0.80;;;14.90;99.90;;;;;;20739171;28;20790;-80
2022/05/21 07:35:26;;;;;;;1.95;0.90;;;15.10;99.90;;;;;;20712179;28;20041;-78
2022/05/21 07:45:27;;;;;;;1.42;0.57;;;15.20;99.90;;;;;;20699001;28;20034;-79
2022/05/21 07:55:28;;;;;;;5.53;1.63;;;15.20;99.90;;;;;;20701275;28;20042;-79
2022/05/21 08:05:29;;;;;;;8.23;1.40;;;15.40;99.90;;;;;;20721498;28;20445;-77
2022/05/21 08:15:31;;;;;;;1.63;0.82;;;15.50;99.90;;;;;;20699789;28;20052;-78
2022/05/21 08:35:52;;;;;;;2.40;0.80;;;15.70;99.90;;;;;;20722135;28;20044;-79
2022/05/21 08:46:09;;;;;;;5.53;1.55;;;16.00;99.90;;;;;;20692006;28;20037;-79
2022/05/21 08:56:10;;;;;;;3.60;1.47;;;16.20;99.90;;;;;;20727176;28;20960;-79
2022/05/21 09:06:18;;;;;;;4.47;0.70;;;16.40;99.90;;;;;;20744594;28;20037;-79
2022/05/21 09:26:49;;;;;;;1.70;0.60;;;16.70;99.90;;;;;;20750110;28;20523;-79
2022/05/21 09:36:51;;;;;;;2.88;0.70;;;16.60;99.90;;;;;;20736348;28;20128;-79
2022/05/21 09:47:20;;;;;;;1.23;0.50;;;16.60;99.90;;;;;;20726164;28;20049;-79
2022/05/21 09:57:43;;;;;;;2.25;0.47;;;16.60;99.90;;;;;;20688844;28;20037;-80
2022/05/21 10:18:37;;;;;;;1.52;0.60;;;16.70;99.90;;;;;;20725047;28;20124;-79
2022/05/21 10:29:11;;;;;;;2.10;1.20;;;16.70;99.90;;;;;;20680353;28;20654;-80
2022/05/21 10:39:46;;;;;;;1.52;0.65;;;16.60;99.90;;;;;;20689510;28;20034;-82
2022/05/21 10:50:10;;;;;;;3.42;1.00;;;16.80;99.90;;;;;;20685473;28;21168;-79
2022/05/21 11:00:31;;;;;;;2.42;1.00;;;17.00;99.90;;;;;;20671239;28;20046;-79
2022/05/21 11:10:51;;;;;;;1.30;0.90;;;16.90;99.90;;;;;;20668576;28;20938;-79
2022/05/21 11:21:08;;;;;;;1.95;0.65;;;16.90;99.90;;;;;;20688486;28;20630;-79
2022/05/21 11:42:06;;;;;;;2.13;0.95;;;17.60;99.90;;;;;;20678524;28;20483;-79
2022/05/21 11:52:26;;;;;;;5.18;0.85;;;18.10;99.90;;;;;;20686255;28;20041;-79
2022/05/21 12:02:30;;;;;;;1.40;1.10;;;18.50;99.90;;;;;;20718377;28;20511;-79
2022/05/21 12:12:31;;;;;;;6.93;0.98;;;18.60;99.90;;;;;;20705987;28;20026;-80
2022/05/21 12:22:39;;;;;;;4.60;1.05;;;19.10;99.90;;;;;;20724100;28;20515;-79
2022/05/21 12:32:40;;;;;;;3.08;0.90;;;19.40;99.90;;;;;;20735056;28;20045;-79
2022/05/21 12:43:04;;;;;;;1.52;0.93;;;19.30;99.90;;;;;;20733065;28;20033;-79
2022/05/21 12:53:06;;;;;;;1.42;0.50;;;18.90;99.90;;;;;;20722319;28;21070;-79
2022/05/21 13:03:09;;;;;;;5.15;1.00;;;18.70;99.90;;;;;;20728199;28;20056;-80
2022/05/21 13:13:20;;;;;;;1.92;0.68;;;18.80;99.90;;;;;;20733298;28;20029;-79
2022/05/21 13:23:42;;;;;;;7.70;1.23;;;18.40;99.90;;;;;;20744050;28;20053;-80
2022/05/21 13:33:52;;;;;;;2.17;0.45;;;18.40;99.90;;;;;;20758897;28;20309;-79
2022/05/21 13:43:54;;;;;;;3.08;0.90;;;18.60;99.90;;;;;;20752423;28;20278;-79
2022/05/21 13:53:56;;;;;;;1.92;0.38;;;18.60;99.90;;;;;;20743691;28;20048;-79
2022/05/21 14:04:09;;;;;;;1.20;0.35;;;18.60;99.90;;;;;;20722266;28;20034;-79
2022/05/21 14:14:14;;;;;;;1.98;0.50;;;18.50;99.90;;;;;;20720635;28;20052;-79
2022/05/21 14:24:23;;;;;;;1.58;0.60;;;18.50;99.90;;;;;;20750297;28;21219;-79
2022/05/21 14:34:27;;;;;;;5.60;0.77;;;18.60;99.90;;;;;;20738586;28;20466;-79
2022/05/21 14:44:28;;;;;;;2.20;0.90;;;18.80;99.90;;;;;;20741261;28;20046;-80
2022/05/21 14:54:31;;;;;;;1.95;0.93;;;18.50;99.90;;;;;;20752181;28;20041;-79
2022/05/21 15:04:33;;;;;;;2.75;0.50;;;18.40;99.90;;;;;;20730882;28;20033;-79
2022/05/21 15:14:38;;;;;;;1.77;0.45;;;18.60;99.90;;;;;;20717544;28;20037;-79
2022/05/21 15:24:39;;;;;;;0.88;0.32;;;18.60;99.90;;;;;;20730622;28;20521;-79
2022/05/21 15:34:40;;;;;;;0.93;0.40;;;18.40;99.90;;;;;;20740438;28;20355;-79
2022/05/21 15:44:41;;;;;;;6.50;0.75;;;18.30;99.90;;;;;;20746566;28;20056;-79
2022/05/21 15:54:42;;;;;;;0.90;0.30;;;18.40;99.90;;;;;;20743689;28;20030;-79
2022/05/21 16:04:44;;;;;;;0.93;0.40;;;18.20;99.90;;;;;;20723667;28;20045;-79
2022/05/21 16:14:45;;;;;;;1.55;0.68;;;18.10;99.90;;;;;;20722208;28;20389;-79
2022/05/21 16:24:47;;;;;;;2.53;0.60;;;18.00;99.90;;;;;;20739546;28;20054;-79
2022/05/21 20:13:29;;;;;;;1.27;0.55;;;15.30;99.90;;;;;;20608712;28;20214;-38
2022/05/21 20:23:30;;;;;;;2.17;0.90;;;14.10;99.90;;;;;;20452412;28;20845;-38
2022/05/21 20:33:33;;;;;;;1.08;0.47;;;14.10;99.90;;;;;;20516199;28;20573;-38
2022/05/21 20:43:35;;;;;;;1.92;0.98;;;13.90;99.90;;;;;;20497075;28;20515;-39
2022/05/21 20:53:36;;;;;;;1.65;0.70;;;13.80;99.90;;;;;;20525864;28;20043;-39
2022/05/21 21:03:37;;;;;;;1.58;1.05;;;13.80;99.90;;;;;;20511496;28;20252;-39
2022/05/21 21:13:38;;;;;;;2.25;1.50;;;13.70;99.90;;;;;;20592217;28;20195;-39
2022/05/21 21:23:39;;;;;;;3.67;1.58;;;13.50;99.90;;;;;;20530877;28;20031;-39
2022/05/21 21:33:43;;;;;;;6.65;1.80;;;13.40;99.90;;;;;;20530717;28;20057;-39
2022/05/21 21:43:44;;;;;;;2.00;1.20;;;13.50;99.90;;;;;;20527447;28;20043;-39
2022/05/21 21:53:46;;;;;;;1.80;1.17;;;13.20;99.90;;;;;;20610491;28;20065;-38
2022/05/21 22:03:47;;;;;;;2.78;1.58;;;12.90;99.90;;;;;;20598992;28;20517;-39
2022/05/21 22:13:49;;;;;;;2.45;0.90;;;13.00;99.90;;;;;;20626075;28;20034;-38
2022/05/21 22:23:50;;;;;;;5.40;1.48;;;12.90;99.90;;;;;;20604287;28;20060;-38
2022/05/21 22:33:51;;;;;;;3.42;1.15;;;12.80;99.90;;;;;;20598896;28;20034;-38
2022/05/21 22:43:52;;;;;;;2.38;1.23;;;12.70;99.90;;;;;;20601366;28;20446;-39
2022/05/21 22:53:53;;;;;;;2.35;1.10;;;12.50;99.90;;;;;;20617914;28;20038;-38
2022/05/21 23:03:54;;;;;;;3.17;1.30;;;12.50;99.90;;;;;;20595878;28;20034;-38
2022/05/21 23:24:16;;;;;;;3.05;1.27;;;12.40;99.90;;;;;;20602346;28;20352;-38
2022/05/21 23:34:17;;;;;;;5.40;3.40;;;12.50;99.90;;;;;;20591073;28;20716;-38
2022/05/21 23:44:18;;;;;;;3.05;1.67;;;12.30;99.90;;;;;;20598916;28;20049;-38
2022/05/21 23:54:19;;;;;;;4.45;1.13;;;12.30;99.90;;;;;;20601933;28;20039;-38
